PWSweather.com
Personal Weather Stations
Station Observations

SkegnessGB

Lat: 53.147585, Lon: 0.345774

Elevation: 18

Station Type: Fine Offset WH3080

http://www.skegnessweather.info/

High Low Average
Temperature 76.6°F24.8°C 58.3°F14.6°C 63.6°F17.6°C
Dew Point 61.0°F16.1°C 54.1°F12.3°C 57.3°F14.1°C
Winds 12.2 mph 19.6 kmh 0.1 mph 0.2 kmh 4.0 mph S6.4 kmh S
Wind Gusts 16.0 mph25.7 kmh 1.7 mph2.7 kmh 5.0 mph8.0 kmh
Humidity 98% 57% 81%
Pressure 29.76 in1007.8 mb 29.59 in1002.0 mb -
Precipitation 0.01 in0.3 mm - -
Hour Temp Dew Point Humidity Winds Wind Gusts Pressure Precip Precip Rate Daily Precip Total
12:00 AM 60.6°F15.9°C 54.4°F12.4°C 80% 1.9 mph N3.1 kmh N 4.2 mph6.8 kmh 29.76 in1007.8 mb 0.00 in0.0 mm 0.00 in0.0 mm 0.00 in0.0 mm
12:10 AM 60.6°F15.9°C 54.4°F12.4°C 80% 1.3 mph S2.1 kmh S 2.5 mph4.0 kmh 29.76 in1007.8 mb 0.00 in0.0 mm 0.00 in0.0 mm 0.00 in0.0 mm
12:20 AM 60.6°F15.9°C 54.4°F12.4°C 80% 2.2 mph W3.5 kmh W 4.9 mph7.9 kmh 29.75 in1007.5 mb 0.00 in0.0 mm 0.00 in0.0 mm 0.00 in0.0 mm
12:30 AM 60.6°F15.9°C 54.4°F12.4°C 80% 1.9 mph E3.1 kmh E 4.9 mph7.9 kmh 29.75 in1007.5 mb 0.00 in0.0 mm 0.00 in0.0 mm 0.00 in0.0 mm
12:40 AM 60.6°F15.9°C 54.4°F12.4°C 80% 2.2 mph E3.5 kmh E 4.9 mph7.9 kmh 29.74 in1007.1 mb 0.00 in0.0 mm 0.00 in0.0 mm 0.00 in0.0 mm
12:50 AM 60.4°F15.8°C 54.2°F12.3°C 80% 3.0 mph N4.8 kmh N 4.9 mph7.9 kmh 29.74 in1007.1 mb 0.00 in0.0 mm 0.00 in0.0 mm 0.00 in0.0 mm
01:00 AM 60.6°F15.9°C 54.4°F12.4°C 80% 4.0 mph S6.4 kmh S 4.9 mph7.9 kmh 29.73 in1006.8 mb 0.00 in0.0 mm 0.00 in0.0 mm 0.00 in0.0 mm
01:10 AM 60.6°F15.9°C 54.4°F12.4°C 80% 2.4 mph NW3.9 kmh NW 4.9 mph7.9 kmh 29.74 in1007.1 mb 0.00 in0.0 mm 0.00 in0.0 mm 0.00 in0.0 mm
01:20 AM 60.6°F15.9°C 54.4°F12.4°C 80% 2.8 mph ENE4.5 kmh ENE 5.9 mph9.5 kmh 29.73 in1006.8 mb 0.00 in0.0 mm 0.00 in0.0 mm 0.00 in0.0 mm
01:30 AM 60.4°F15.8°C 54.2°F12.3°C 80% 2.6 mph E4.2 kmh E 4.9 mph7.9 kmh 29.73 in1006.8 mb 0.00 in0.0 mm 0.00 in0.0 mm 0.00 in0.0 mm
01:40 AM 60.4°F15.8°C 54.2°F12.3°C 80% 2.1 mph SW3.4 kmh SW 4.9 mph7.9 kmh 29.72 in1006.4 mb 0.00 in0.0 mm 0.00 in0.0 mm 0.00 in0.0 mm
01:50 AM 60.4°F15.8°C 54.2°F12.3°C 80% 1.6 mph N2.6 kmh N 4.2 mph6.8 kmh 29.72 in1006.4 mb 0.00 in0.0 mm 0.00 in0.0 mm 0.00 in0.0 mm
02:00 AM 60.3°F15.7°C 54.1°F12.3°C 80% 1.9 mph NW3.1 kmh NW 4.2 mph6.8 kmh 29.72 in1006.4 mb 0.00 in0.0 mm 0.00 in0.0 mm 0.00 in0.0 mm
02:10 AM 60.1°F15.6°C 54.2°F12.3°C 81% 3.7 mph NW6.0 kmh NW 4.2 mph6.8 kmh 29.72 in1006.4 mb 0.00 in0.0 mm 0.00 in0.0 mm 0.00 in0.0 mm
02:20 AM 59.9°F15.5°C 54.1°F12.3°C 81% 1.4 mph SE2.3 kmh SE 3.4 mph5.5 kmh 29.71 in1006.1 mb 0.00 in0.0 mm 0.00 in0.0 mm 0.00 in0.0 mm
02:30 AM 59.9°F15.5°C 54.1°F12.3°C 81% 1.6 mph NW2.6 kmh NW 2.5 mph4.0 kmh 29.71 in1006.1 mb 0.00 in0.0 mm 0.00 in0.0 mm 0.00 in0.0 mm
02:40 AM 59.9°F15.5°C 54.4°F12.4°C 82% 1.4 mph NNW2.3 kmh NNW 3.4 mph5.5 kmh 29.71 in1006.1 mb 0.00 in0.0 mm 0.00 in0.0 mm 0.00 in0.0 mm
02:50 AM 60.1°F15.6°C 54.6°F12.6°C 82% 1.4 mph N2.3 kmh N 4.2 mph6.8 kmh 29.71 in1006.1 mb 0.00 in0.0 mm 0.00 in0.0 mm 0.00 in0.0 mm
03:00 AM 60.1°F15.6°C 54.6°F12.6°C 82% 1.7 mph N2.7 kmh N 4.2 mph6.8 kmh 29.70 in1005.8 mb 0.00 in0.0 mm 0.00 in0.0 mm 0.00 in0.0 mm
03:10 AM 60.1°F15.6°C 54.6°F12.6°C 82% 1.7 mph S2.7 kmh S 4.2 mph6.8 kmh 29.70 in1005.8 mb 0.00 in0.0 mm 0.00 in0.0 mm 0.00 in0.0 mm
03:20 AM 60.3°F15.7°C 54.7°F12.6°C 82% 2.1 mph NW3.4 kmh NW 4.2 mph6.8 kmh 29.69 in1005.4 mb 0.00 in0.0 mm 0.00 in0.0 mm 0.00 in0.0 mm
03:30 AM 60.4°F15.8°C 54.9°F12.7°C 82% 2.0 mph E3.2 kmh E 5.9 mph9.5 kmh 29.68 in1005.1 mb 0.00 in0.0 mm 0.00 in0.0 mm 0.00 in0.0 mm
03:40 AM 60.6°F15.9°C 54.8°F12.7°C 81% 4.0 mph E6.4 kmh E 5.9 mph9.5 kmh 29.68 in1005.1 mb 0.00 in0.0 mm 0.00 in0.0 mm 0.00 in0.0 mm
03:50 AM 60.8°F16.0°C 54.9°F12.7°C 81% 2.9 mph SSE4.7 kmh SSE 7.6 mph12.2 kmh 29.68 in1005.1 mb 0.00 in0.0 mm 0.00 in0.0 mm 0.00 in0.0 mm
04:00 AM 60.8°F16.0°C 54.9°F12.7°C 81% 2.6 mph SE4.2 kmh SE 4.2 mph6.8 kmh 29.68 in1005.1 mb 0.00 in0.0 mm 0.00 in0.0 mm 0.00 in0.0 mm
04:10 AM 60.6°F15.9°C 54.8°F12.7°C 81% 0.8 mph NE1.3 kmh NE 4.2 mph6.8 kmh 29.67 in1004.7 mb 0.00 in0.0 mm 0.00 in0.0 mm 0.00 in0.0 mm
04:20 AM 60.6°F15.9°C 55.1°F12.8°C 82% 2.8 mph WSW4.5 kmh WSW 5.9 mph9.5 kmh 29.67 in1004.7 mb 0.00 in0.0 mm 0.00 in0.0 mm 0.00 in0.0 mm
04:30 AM 60.6°F15.9°C 55.1°F12.8°C 82% 2.1 mph E3.4 kmh E 3.4 mph5.5 kmh 29.67 in1004.7 mb 0.00 in0.0 mm 0.00 in0.0 mm 0.00 in0.0 mm
04:40 AM 60.6°F15.9°C 55.1°F12.8°C 82% 2.1 mph NNW3.4 kmh NNW 6.6 mph10.6 kmh 29.67 in1004.7 mb 0.00 in0.0 mm 0.00 in0.0 mm 0.00 in0.0 mm
04:50 AM 60.6°F15.9°C 55.4°F13.0°C 83% 1.9 mph WNW3.1 kmh WNW 4.2 mph6.8 kmh 29.67 in1004.7 mb 0.00 in0.0 mm 0.00 in0.0 mm 0.00 in0.0 mm
05:00 AM 60.4°F15.8°C 55.3°F12.9°C 83% 2.4 mph W3.9 kmh W 4.9 mph7.9 kmh 29.66 in1004.4 mb 0.00 in0.0 mm 0.00 in0.0 mm 0.00 in0.0 mm
05:10 AM 60.4°F15.8°C 55.3°F12.9°C 83% 1.6 mph ESE2.6 kmh ESE 4.9 mph7.9 kmh 29.66 in1004.4 mb 0.00 in0.0 mm 0.00 in0.0 mm 0.00 in0.0 mm
05:20 AM 60.4°F15.8°C 55.3°F12.9°C 83% 1.7 mph N2.7 kmh N 4.2 mph6.8 kmh 29.66 in1004.4 mb 0.00 in0.0 mm 0.00 in0.0 mm 0.00 in0.0 mm
05:30 AM 60.3°F15.7°C 55.1°F12.8°C 83% 1.7 mph S2.7 kmh S 3.4 mph5.5 kmh 29.66 in1004.4 mb 0.00 in0.0 mm 0.00 in0.0 mm 0.00 in0.0 mm
05:40 AM 60.4°F15.8°C 55.6°F13.1°C 84% 2.0 mph NE3.2 kmh NE 4.2 mph6.8 kmh 29.66 in1004.4 mb 0.00 in0.0 mm 0.00 in0.0 mm 0.00 in0.0 mm
05:50 AM 60.4°F15.8°C 55.6°F13.1°C 84% 1.3 mph NE2.1 kmh NE 2.5 mph4.0 kmh 29.65 in1004.1 mb 0.00 in0.0 mm 0.00 in0.0 mm 0.00 in0.0 mm
06:00 AM 60.6°F15.9°C 56.1°F13.4°C 85% 1.4 mph NW2.3 kmh NW 3.4 mph5.5 kmh 29.65 in1004.1 mb 0.00 in0.0 mm 0.00 in0.0 mm 0.00 in0.0 mm
06:10 AM 60.8°F16.0°C 56.3°F13.5°C 85% 0.5 mph E0.8 kmh E 2.5 mph4.0 kmh 29.65 in1004.1 mb 0.00 in0.0 mm 0.00 in0.0 mm 0.00 in0.0 mm
06:20 AM 61.0°F16.1°C 56.1°F13.4°C 84% 1.6 mph WNW2.6 kmh WNW 2.5 mph4.0 kmh 29.65 in1004.1 mb 0.00 in0.0 mm 0.00 in0.0 mm 0.00 in0.0 mm
06:30 AM 61.2°F16.2°C 56.3°F13.5°C 84% 2.1 mph NE3.4 kmh NE 4.2 mph6.8 kmh 29.65 in1004.1 mb 0.00 in0.0 mm 0.00 in0.0 mm 0.00 in0.0 mm
06:40 AM 61.5°F16.4°C 56.6°F13.7°C 84% 2.3 mph NNW3.7 kmh NNW 5.9 mph9.5 kmh 29.65 in1004.1 mb 0.00 in0.0 mm 0.00 in0.0 mm 0.00 in0.0 mm
06:50 AM 61.9°F16.6°C 56.7°F13.7°C 83% 3.1 mph WSW5.0 kmh WSW 4.9 mph7.9 kmh 29.65 in1004.1 mb 0.00 in0.0 mm 0.00 in0.0 mm 0.00 in0.0 mm
07:00 AM 62.1°F16.7°C 56.8°F13.8°C 83% 2.4 mph SW3.9 kmh SW 5.9 mph9.5 kmh 29.64 in1003.7 mb 0.00 in0.0 mm 0.00 in0.0 mm 0.00 in0.0 mm
07:10 AM 62.1°F16.7°C 56.5°F13.6°C 82% 2.9 mph NW4.7 kmh NW 7.6 mph12.2 kmh 29.64 in1003.7 mb 0.00 in0.0 mm 0.00 in0.0 mm 0.00 in0.0 mm
07:20 AM 62.2°F16.8°C 56.7°F13.7°C 82% 2.9 mph N4.7 kmh N 6.6 mph10.6 kmh 29.64 in1003.7 mb 0.00 in0.0 mm 0.00 in0.0 mm 0.00 in0.0 mm
07:30 AM 62.6°F17.0°C 56.0°F13.3°C 79% 3.0 mph NW4.8 kmh NW 4.9 mph7.9 kmh 29.64 in1003.7 mb 0.00 in0.0 mm 0.00 in0.0 mm 0.00 in0.0 mm
07:40 AM 63.1°F17.3°C 56.2°F13.4°C 78% 3.7 mph N6.0 kmh N 4.9 mph7.9 kmh 29.63 in1003.4 mb 0.00 in0.0 mm 0.00 in0.0 mm 0.00 in0.0 mm
07:50 AM 63.5°F17.5°C 55.8°F13.2°C 76% 3.4 mph NW5.5 kmh NW 7.6 mph12.2 kmh 29.64 in1003.7 mb 0.00 in0.0 mm 0.00 in0.0 mm 0.00 in0.0 mm
08:00 AM 64.0°F17.8°C 56.0°F13.3°C 75% 3.7 mph SW6.0 kmh SW 5.9 mph9.5 kmh 29.65 in1004.1 mb 0.00 in0.0 mm 0.00 in0.0 mm 0.00 in0.0 mm
08:10 AM 64.2°F17.9°C 56.1°F13.4°C 75% 3.2 mph NW5.1 kmh NW 5.9 mph9.5 kmh 29.65 in1004.1 mb 0.00 in0.0 mm 0.00 in0.0 mm 0.00 in0.0 mm
08:20 AM 63.9°F17.7°C 55.8°F13.2°C 75% 4.1 mph NNW6.6 kmh NNW 4.9 mph7.9 kmh 29.64 in1003.7 mb 0.00 in0.0 mm 0.00 in0.0 mm 0.00 in0.0 mm
08:30 AM 64.4°F18.0°C 56.7°F13.7°C 76% 3.6 mph SSW5.8 kmh SSW 5.9 mph9.5 kmh 29.64 in1003.7 mb 0.00 in0.0 mm 0.00 in0.0 mm 0.00 in0.0 mm
08:40 AM 64.6°F18.1°C 56.8°F13.8°C 76% 4.0 mph SSE6.4 kmh SSE 4.9 mph7.9 kmh 29.65 in1004.1 mb 0.00 in0.0 mm 0.00 in0.0 mm 0.00 in0.0 mm
08:50 AM 65.1°F18.4°C 57.0°F13.9°C 75% 3.4 mph SW5.5 kmh SW 5.9 mph9.5 kmh 29.65 in1004.1 mb 0.00 in0.0 mm 0.00 in0.0 mm 0.00 in0.0 mm
09:00 AM 66.0°F18.9°C 57.9°F14.4°C 75% 2.0 mph SE3.2 kmh SE 4.2 mph6.8 kmh 29.65 in1004.1 mb 0.00 in0.0 mm 0.00 in0.0 mm 0.00 in0.0 mm
09:10 AM 66.2°F19.0°C 57.7°F14.3°C 74% 1.1 mph N1.8 kmh N 3.4 mph5.5 kmh 29.65 in1004.1 mb 0.00 in0.0 mm 0.00 in0.0 mm 0.00 in0.0 mm
09:20 AM 67.1°F19.5°C 58.2°F14.6°C 73% 0.5 mph WSW0.8 kmh WSW 2.5 mph4.0 kmh 29.64 in1003.7 mb 0.00 in0.0 mm 0.00 in0.0 mm 0.00 in0.0 mm
09:30 AM 69.4°F20.8°C 59.6°F15.3°C 71% 2.4 mph S3.9 kmh S 4.2 mph6.8 kmh 29.64 in1003.7 mb 0.00 in0.0 mm 0.00 in0.0 mm 0.00 in0.0 mm
09:40 AM 72.3°F22.4°C 59.0°F15.0°C 63% 2.2 mph NNE3.5 kmh NNE 4.2 mph6.8 kmh 29.63 in1003.4 mb 0.00 in0.0 mm 0.00 in0.0 mm 0.00 in0.0 mm
09:50 AM 73.6°F23.1°C 58.8°F14.9°C 60% 1.4 mph N2.3 kmh N 4.2 mph6.8 kmh 29.64 in1003.7 mb 0.00 in0.0 mm 0.00 in0.0 mm 0.00 in0.0 mm
10:00 AM 74.7°F23.7°C 58.9°F14.9°C 58% 1.5 mph S2.4 kmh S 2.5 mph4.0 kmh 29.63 in1003.4 mb 0.00 in0.0 mm 0.00 in0.0 mm 0.00 in0.0 mm
10:10 AM 73.0°F22.8°C 57.4°F14.1°C 58% 0.4 mph NNW0.6 kmh NNW 2.5 mph4.0 kmh 29.62 in1003.0 mb 0.00 in0.0 mm 0.00 in0.0 mm 0.00 in0.0 mm
10:20 AM 70.2°F21.2°C 57.4°F14.1°C 64% 1.5 mph N2.4 kmh N 3.4 mph5.5 kmh 29.62 in1003.0 mb 0.00 in0.0 mm 0.00 in0.0 mm 0.00 in0.0 mm
10:30 AM 68.7°F20.4°C 58.1°F14.5°C 69% 0.6 mph NNW1.0 kmh NNW 3.4 mph5.5 kmh 29.63 in1003.4 mb 0.00 in0.0 mm 0.00 in0.0 mm 0.00 in0.0 mm
10:40 AM 68.4°F20.2°C 58.2°F14.6°C 70% 1.1 mph N1.8 kmh N 3.4 mph5.5 kmh 29.63 in1003.4 mb 0.00 in0.0 mm 0.00 in0.0 mm 0.00 in0.0 mm
10:50 AM 68.4°F20.2°C 58.6°F14.8°C 71% 1.9 mph N3.1 kmh N 3.4 mph5.5 kmh 29.62 in1003.0 mb 0.00 in0.0 mm 0.00 in0.0 mm 0.00 in0.0 mm
11:00 AM 68.0°F20.0°C 58.2°F14.6°C 71% 1.3 mph N2.1 kmh N 2.5 mph4.0 kmh 29.63 in1003.4 mb 0.00 in0.0 mm 0.00 in0.0 mm 0.00 in0.0 mm
11:10 AM 68.4°F20.2°C 58.6°F14.8°C 71% 0.8 mph N1.3 kmh N 2.5 mph4.0 kmh 29.62 in1003.0 mb 0.00 in0.0 mm 0.00 in0.0 mm 0.00 in0.0 mm
11:20 AM 68.7°F20.4°C 58.9°F14.9°C 71% 0.3 mph N0.5 kmh N 1.7 mph2.7 kmh 29.62 in1003.0 mb 0.00 in0.0 mm 0.00 in0.0 mm 0.00 in0.0 mm
11:30 AM 69.4°F20.8°C 59.6°F15.3°C 71% 1.4 mph N2.3 kmh N 3.4 mph5.5 kmh 29.62 in1003.0 mb 0.00 in0.0 mm 0.00 in0.0 mm 0.00 in0.0 mm
11:40 AM 73.4°F23.0°C 60.5°F15.8°C 64% 1.7 mph WSW2.7 kmh WSW 3.4 mph5.5 kmh 29.62 in1003.0 mb 0.00 in0.0 mm 0.00 in0.0 mm 0.00 in0.0 mm
11:50 AM 75.6°F24.2°C 60.2°F15.7°C 59% 1.5 mph N2.4 kmh N 3.4 mph5.5 kmh 29.61 in1002.7 mb 0.00 in0.0 mm 0.00 in0.0 mm 0.00 in0.0 mm
12:00 PM 76.6°F24.8°C 60.3°F15.7°C 57% 1.5 mph N2.4 kmh N 2.5 mph4.0 kmh 29.61 in1002.7 mb 0.00 in0.0 mm 0.00 in0.0 mm 0.00 in0.0 mm
12:10 PM 74.3°F23.5°C 59.0°F15.0°C 59% 1.2 mph ENE1.9 kmh ENE 2.5 mph4.0 kmh 29.61 in1002.7 mb 0.00 in0.0 mm 0.00 in0.0 mm 0.00 in0.0 mm
12:20 PM 74.3°F23.5°C 60.0°F15.6°C 61% 0.8 mph NNE1.3 kmh NNE 2.5 mph4.0 kmh 29.62 in1003.0 mb 0.00 in0.0 mm 0.00 in0.0 mm 0.00 in0.0 mm
12:30 PM 76.3°F24.6°C 60.9°F16.1°C 59% 1.3 mph N2.1 kmh N 2.5 mph4.0 kmh 29.61 in1002.7 mb 0.00 in0.0 mm 0.00 in0.0 mm 0.00 in0.0 mm
12:40 PM 75.6°F24.2°C 60.2°F15.7°C 59% 1.3 mph NE2.1 kmh NE 3.4 mph5.5 kmh 29.61 in1002.7 mb 0.00 in0.0 mm 0.00 in0.0 mm 0.00 in0.0 mm
12:50 PM 73.8°F23.2°C 59.0°F15.0°C 60% 1.1 mph ENE1.8 kmh ENE 3.4 mph5.5 kmh 29.61 in1002.7 mb 0.00 in0.0 mm 0.00 in0.0 mm 0.00 in0.0 mm
01:00 PM 73.4°F23.0°C 59.1°F15.1°C 61% 0.9 mph E1.4 kmh E 2.5 mph4.0 kmh 29.61 in1002.7 mb 0.00 in0.0 mm 0.00 in0.0 mm 0.00 in0.0 mm
01:10 PM 71.1°F21.7°C 58.7°F14.8°C 65% 1.2 mph N1.9 kmh N 2.5 mph4.0 kmh 29.60 in1002.4 mb 0.00 in0.0 mm 0.00 in0.0 mm 0.00 in0.0 mm
01:20 PM 69.8°F21.0°C 59.2°F15.1°C 69% 1.0 mph NNW1.6 kmh NNW 2.5 mph4.0 kmh 29.60 in1002.4 mb 0.00 in0.0 mm 0.00 in0.0 mm 0.00 in0.0 mm
01:30 PM 68.7°F20.4°C 58.5°F14.7°C 70% 0.9 mph N1.4 kmh N 3.4 mph5.5 kmh 29.60 in1002.4 mb 0.00 in0.0 mm 0.00 in0.0 mm 0.00 in0.0 mm
01:40 PM 68.5°F20.3°C 58.8°F14.9°C 71% 0.1 mph NNW0.2 kmh NNW 1.7 mph2.7 kmh 29.60 in1002.4 mb 0.00 in0.0 mm 0.00 in0.0 mm 0.00 in0.0 mm
01:50 PM 69.6°F20.9°C 59.8°F15.4°C 71% 0.9 mph NW1.4 kmh NW 2.5 mph4.0 kmh 29.60 in1002.4 mb 0.00 in0.0 mm 0.00 in0.0 mm 0.00 in0.0 mm
02:00 PM 70.2°F21.2°C 59.9°F15.5°C 70% 0.9 mph N1.4 kmh N 2.5 mph4.0 kmh 29.60 in1002.4 mb 0.00 in0.0 mm 0.00 in0.0 mm 0.00 in0.0 mm
02:10 PM 69.8°F21.0°C 59.6°F15.3°C 70% 0.5 mph N0.8 kmh N 2.5 mph4.0 kmh 29.60 in1002.4 mb 0.00 in0.0 mm 0.00 in0.0 mm 0.00 in0.0 mm
02:20 PM 68.7°F20.4°C 58.9°F14.9°C 71% 1.2 mph N1.9 kmh N 2.5 mph4.0 kmh 29.59 in1002.0 mb 0.00 in0.0 mm 0.00 in0.0 mm 0.00 in0.0 mm
02:30 PM 67.8°F19.9°C 58.5°F14.7°C 72% 0.8 mph N1.3 kmh N 2.5 mph4.0 kmh 29.60 in1002.4 mb 0.00 in0.0 mm 0.00 in0.0 mm 0.00 in0.0 mm
02:40 PM 69.3°F20.7°C 59.8°F15.4°C 72% 0.6 mph N1.0 kmh N 2.5 mph4.0 kmh 29.59 in1002.0 mb 0.00 in0.0 mm 0.00 in0.0 mm 0.00 in0.0 mm
02:50 PM 70.9°F21.6°C 61.0°F16.1°C 71% 2.3 mph N3.7 kmh N 3.4 mph5.5 kmh 29.59 in1002.0 mb 0.00 in0.0 mm 0.00 in0.0 mm 0.00 in0.0 mm
03:00 PM 71.1°F21.7°C 60.4°F15.8°C 69% 1.4 mph NNE2.3 kmh NNE 3.4 mph5.5 kmh 29.59 in1002.0 mb 0.00 in0.0 mm 0.00 in0.0 mm 0.00 in0.0 mm
03:10 PM 70.7°F21.5°C 60.4°F15.8°C 70% 1.4 mph N2.3 kmh N 2.5 mph4.0 kmh 29.59 in1002.0 mb 0.00 in0.0 mm 0.00 in0.0 mm 0.00 in0.0 mm
03:20 PM 70.0°F21.1°C 59.7°F15.4°C 70% 1.4 mph N2.3 kmh N 3.4 mph5.5 kmh 29.59 in1002.0 mb 0.00 in0.0 mm 0.00 in0.0 mm 0.00 in0.0 mm
03:30 PM 68.4°F20.2°C 58.6°F14.8°C 71% 2.2 mph NNE3.5 kmh NNE 2.5 mph4.0 kmh 29.59 in1002.0 mb 0.00 in0.0 mm 0.00 in0.0 mm 0.00 in0.0 mm
03:40 PM 67.3°F19.6°C 57.9°F14.4°C 72% 1.2 mph NNE1.9 kmh NNE 3.4 mph5.5 kmh 29.59 in1002.0 mb 0.00 in0.0 mm 0.00 in0.0 mm 0.00 in0.0 mm
03:50 PM 67.1°F19.5°C 58.5°F14.7°C 74% 3.6 mph E5.8 kmh E 7.6 mph12.2 kmh 29.59 in1002.0 mb 0.00 in0.0 mm 0.00 in0.0 mm 0.00 in0.0 mm
04:00 PM 67.3°F19.6°C 59.1°F15.1°C 75% 9.2 mph S14.8 kmh S 16.0 mph25.7 kmh 29.61 in1002.7 mb 0.00 in0.0 mm 0.00 in0.0 mm 0.00 in0.0 mm
04:10 PM 66.0°F18.9°C 57.9°F14.4°C 75% 11.1 mph S17.9 kmh S 10.1 mph16.3 kmh 29.62 in1003.0 mb 0.00 in0.0 mm 0.00 in0.0 mm 0.00 in0.0 mm
04:20 PM 64.8°F18.2°C 56.6°F13.7°C 75% 12.2 mph S19.6 kmh S 14.3 mph23.0 kmh 29.62 in1003.0 mb 0.00 in0.0 mm 0.00 in0.0 mm 0.00 in0.0 mm
04:30 PM 64.2°F17.9°C 56.5°F13.6°C 76% 10.2 mph SSW16.4 kmh SSW 13.3 mph21.4 kmh 29.62 in1003.0 mb 0.00 in0.0 mm 0.00 in0.0 mm 0.00 in0.0 mm
04:40 PM 63.5°F17.5°C 56.5°F13.6°C 78% 9.1 mph SSE14.6 kmh SSE 9.1 mph14.6 kmh 29.63 in1003.4 mb 0.00 in0.0 mm 0.00 in0.0 mm 0.00 in0.0 mm
04:50 PM 62.6°F17.0°C 56.7°F13.7°C 81% 8.0 mph SSW12.9 kmh SSW 10.1 mph16.3 kmh 29.63 in1003.4 mb 0.00 in0.0 mm 0.00 in0.0 mm 0.00 in0.0 mm
05:00 PM 61.9°F16.6°C 58.0°F14.4°C 87% 6.0 mph S9.7 kmh S 7.6 mph12.2 kmh 29.63 in1003.4 mb 0.00 in0.0 mm 0.00 in0.0 mm 0.00 in0.0 mm
05:10 PM 61.3°F16.3°C 58.1°F14.5°C 89% 7.3 mph SW11.7 kmh SW 8.4 mph13.5 kmh 29.64 in1003.7 mb 0.00 in0.0 mm 0.00 in0.0 mm 0.00 in0.0 mm
05:20 PM 61.0°F16.1°C 58.0°F14.4°C 90% 8.4 mph S13.5 kmh S 13.3 mph21.4 kmh 29.64 in1003.7 mb 0.00 in0.0 mm 0.00 in0.0 mm 0.00 in0.0 mm
05:30 PM 60.6°F15.9°C 58.0°F14.4°C 91% 5.6 mph SW9.0 kmh SW 6.6 mph10.6 kmh 29.65 in1004.1 mb 0.00 in0.0 mm 0.00 in0.0 mm 0.00 in0.0 mm
05:40 PM 60.4°F15.8°C 57.8°F14.3°C 91% 6.6 mph S10.6 kmh S 6.6 mph10.6 kmh 29.65 in1004.1 mb 0.00 in0.0 mm 0.00 in0.0 mm 0.00 in0.0 mm
05:50 PM 60.1°F15.6°C 57.7°F14.3°C 92% 4.9 mph SSE7.9 kmh SSE 6.6 mph10.6 kmh 29.65 in1004.1 mb 0.00 in0.0 mm 0.00 in0.0 mm 0.00 in0.0 mm
06:00 PM 60.1°F15.6°C 58.0°F14.4°C 93% 5.6 mph S9.0 kmh S 5.9 mph9.5 kmh 29.66 in1004.4 mb 0.00 in0.0 mm 0.00 in0.0 mm 0.00 in0.0 mm
06:10 PM 59.9°F15.5°C 57.9°F14.4°C 93% 4.9 mph W7.9 kmh W 4.2 mph6.8 kmh 29.65 in1004.1 mb 0.00 in0.0 mm 0.00 in0.0 mm 0.00 in0.0 mm
06:20 PM 59.7°F15.4°C 58.0°F14.4°C 94% 3.5 mph WSW5.6 kmh WSW 6.6 mph10.6 kmh 29.65 in1004.1 mb 0.00 in0.0 mm 0.00 in0.0 mm 0.00 in0.0 mm
06:30 PM 59.5°F15.3°C 57.8°F14.3°C 94% 3.9 mph SSW6.3 kmh SSW 4.9 mph7.9 kmh 29.66 in1004.4 mb 0.00 in0.0 mm 0.00 in0.0 mm 0.00 in0.0 mm
06:40 PM 59.4°F15.2°C 57.6°F14.2°C 94% 3.6 mph WSW5.8 kmh WSW 4.9 mph7.9 kmh 29.66 in1004.4 mb 0.00 in0.0 mm 0.00 in0.0 mm 0.00 in0.0 mm
06:50 PM 59.4°F15.2°C 57.6°F14.2°C 94% 4.0 mph S6.4 kmh S 5.9 mph9.5 kmh 29.67 in1004.7 mb 0.00 in0.0 mm 0.00 in0.0 mm 0.00 in0.0 mm
07:00 PM 59.4°F15.2°C 57.6°F14.2°C 94% 3.8 mph SE6.1 kmh SE 4.9 mph7.9 kmh 29.67 in1004.7 mb 0.00 in0.0 mm 0.00 in0.0 mm 0.00 in0.0 mm
07:10 PM 59.4°F15.2°C 57.9°F14.4°C 95% 3.9 mph SSE6.3 kmh SSE 4.2 mph6.8 kmh 29.67 in1004.7 mb 0.00 in0.0 mm 0.00 in0.0 mm 0.00 in0.0 mm
07:20 PM 59.5°F15.3°C 58.1°F14.5°C 95% 5.5 mph SSE8.9 kmh SSE 5.9 mph9.5 kmh 29.68 in1005.1 mb 0.00 in0.0 mm 0.00 in0.0 mm 0.00 in0.0 mm
07:30 PM 59.5°F15.3°C 58.1°F14.5°C 95% 6.4 mph SSE10.3 kmh SSE 6.6 mph10.6 kmh 29.67 in1004.7 mb 0.00 in0.0 mm 0.00 in0.0 mm 0.00 in0.0 mm
07:40 PM 59.4°F15.2°C 57.9°F14.4°C 95% 4.9 mph SSE7.9 kmh SSE 4.9 mph7.9 kmh 29.68 in1005.1 mb 0.00 in0.0 mm 0.00 in0.0 mm 0.00 in0.0 mm
07:50 PM 59.2°F15.1°C 58.0°F14.4°C 96% 4.3 mph S6.9 kmh S 4.9 mph7.9 kmh 29.68 in1005.1 mb 0.00 in0.0 mm 0.00 in0.0 mm 0.00 in0.0 mm
08:00 PM 59.4°F15.2°C 58.2°F14.6°C 96% 4.2 mph SE6.8 kmh SE 5.9 mph9.5 kmh 29.69 in1005.4 mb 0.00 in0.0 mm 0.00 in0.0 mm 0.00 in0.0 mm
08:10 PM 59.5°F15.3°C 58.4°F14.7°C 96% 4.1 mph SSE6.6 kmh SSE 6.6 mph10.6 kmh 29.69 in1005.4 mb 0.00 in0.0 mm 0.00 in0.0 mm 0.00 in0.0 mm
08:20 PM 59.7°F15.4°C 58.6°F14.8°C 96% 7.3 mph SSE11.7 kmh SSE 8.4 mph13.5 kmh 29.69 in1005.4 mb 0.00 in0.0 mm 0.00 in0.0 mm 0.00 in0.0 mm
08:30 PM 59.5°F15.3°C 58.7°F14.8°C 97% 7.2 mph S11.6 kmh S 7.6 mph12.2 kmh 29.69 in1005.4 mb 0.00 in0.0 mm 0.00 in0.0 mm 0.00 in0.0 mm
08:40 PM 59.5°F15.3°C 58.7°F14.8°C 97% 8.9 mph SSE14.3 kmh SSE 8.4 mph13.5 kmh 29.69 in1005.4 mb 0.00 in0.0 mm 0.00 in0.0 mm 0.00 in0.0 mm
08:50 PM 59.5°F15.3°C 59.0°F15.0°C 98% 8.6 mph SSE13.8 kmh SSE 9.1 mph14.6 kmh 29.68 in1005.1 mb 0.01 in0.3 mm 0.06 in1.5 mm 0.01 in0.3 mm
09:00 PM 59.5°F15.3°C 59.0°F15.0°C 98% 7.9 mph SSE12.7 kmh SSE 8.4 mph13.5 kmh 29.68 in1005.1 mb 0.01 in0.3 mm 0.00 in0.0 mm 0.01 in0.3 mm
09:10 PM 59.5°F15.3°C 59.0°F15.0°C 98% 6.5 mph S10.5 kmh S 4.9 mph7.9 kmh 29.68 in1005.1 mb 0.01 in0.3 mm 0.00 in0.0 mm 0.01 in0.3 mm
09:20 PM 59.4°F15.2°C 58.8°F14.9°C 98% 5.8 mph S9.3 kmh S 7.6 mph12.2 kmh 29.68 in1005.1 mb 0.01 in0.3 mm 0.00 in0.0 mm 0.01 in0.3 mm
09:30 PM 59.4°F15.2°C 58.8°F14.9°C 98% 7.6 mph SSE12.2 kmh SSE 7.6 mph12.2 kmh 29.68 in1005.1 mb 0.01 in0.3 mm 0.00 in0.0 mm 0.01 in0.3 mm
09:40 PM 59.4°F15.2°C 58.8°F14.9°C 98% 7.7 mph SE12.4 kmh SE 6.6 mph10.6 kmh 29.69 in1005.4 mb 0.00 in0.0 mm 0.00 in0.0 mm 0.01 in0.3 mm
09:50 PM 59.4°F15.2°C 58.8°F14.9°C 98% 7.3 mph SSE11.7 kmh SSE 9.1 mph14.6 kmh 29.69 in1005.4 mb 0.00 in0.0 mm 0.00 in0.0 mm 0.01 in0.3 mm
10:00 PM 59.4°F15.2°C 58.8°F14.9°C 98% 9.4 mph SSE15.1 kmh SSE 10.1 mph16.3 kmh 29.68 in1005.1 mb 0.00 in0.0 mm 0.00 in0.0 mm 0.01 in0.3 mm
10:10 PM 59.4°F15.2°C 58.8°F14.9°C 98% 10.0 mph SSE16.1 kmh SSE 8.4 mph13.5 kmh 29.69 in1005.4 mb 0.00 in0.0 mm 0.00 in0.0 mm 0.01 in0.3 mm
10:20 PM 59.2°F15.1°C 58.3°F14.6°C 97% 10.4 mph SSE16.7 kmh SSE 13.3 mph21.4 kmh 29.68 in1005.1 mb 0.00 in0.0 mm 0.00 in0.0 mm 0.01 in0.3 mm
10:30 PM 59.2°F15.1°C 58.3°F14.6°C 97% 9.5 mph SE15.3 kmh SE 10.1 mph16.3 kmh 29.69 in1005.4 mb 0.00 in0.0 mm 0.00 in0.0 mm 0.01 in0.3 mm
10:40 PM 59.0°F15.0°C 58.2°F14.6°C 97% 9.7 mph S15.6 kmh S 10.1 mph16.3 kmh 29.69 in1005.4 mb 0.00 in0.0 mm 0.00 in0.0 mm 0.01 in0.3 mm
10:50 PM 59.0°F15.0°C 57.9°F14.4°C 96% 10.1 mph S16.3 kmh S 10.1 mph16.3 kmh 29.70 in1005.8 mb 0.00 in0.0 mm 0.00 in0.0 mm 0.01 in0.3 mm
11:00 PM 58.8°F14.9°C 57.7°F14.3°C 96% 9.9 mph SSE15.9 kmh SSE 10.1 mph16.3 kmh 29.70 in1005.8 mb 0.00 in0.0 mm 0.00 in0.0 mm 0.01 in0.3 mm
11:10 PM 58.6°F14.8°C 57.2°F14.0°C 95% 8.4 mph S13.5 kmh S 8.4 mph13.5 kmh 29.70 in1005.8 mb 0.00 in0.0 mm 0.00 in0.0 mm 0.01 in0.3 mm
11:20 PM 58.6°F14.8°C 57.2°F14.0°C 95% 8.4 mph SSE13.5 kmh SSE 10.8 mph17.4 kmh 29.71 in1006.1 mb 0.00 in0.0 mm 0.00 in0.0 mm 0.01 in0.3 mm
11:30 PM 58.5°F14.7°C 56.7°F13.7°C 94% 9.5 mph SSE15.3 kmh SSE 9.1 mph14.6 kmh 29.71 in1006.1 mb 0.00 in0.0 mm 0.00 in0.0 mm 0.01 in0.3 mm
11:40 PM 58.5°F14.7°C 56.4°F13.6°C 93% 9.2 mph S14.8 kmh S 10.1 mph16.3 kmh 29.71 in1006.1 mb 0.00 in0.0 mm 0.00 in0.0 mm 0.01 in0.3 mm
11:50 PM 58.3°F14.6°C 56.3°F13.5°C 93% 9.4 mph S15.1 kmh S 10.1 mph16.3 kmh 29.71 in1006.1 mb 0.00 in0.0 mm 0.00 in0.0 mm 0.01 in0.3 mm